sensor_id;sensor_type;location;lat;lon;timestamp;P1;durP1;ratioP1;P2;durP2;ratioP2
36359;SDS011;22388;52.432;20.662;2024-03-08T00:02:03;81.20;;;35.15;;
36359;SDS011;22388;52.432;20.662;2024-03-08T00:04:30;103.63;;;44.30;;
36359;SDS011;22388;52.432;20.662;2024-03-08T00:06:55;104.32;;;47.25;;
36359;SDS011;22388;52.432;20.662;2024-03-08T00:09:21;91.65;;;41.67;;
36359;SDS011;22388;52.432;20.662;2024-03-08T00:11:46;118.10;;;46.38;;
36359;SDS011;22388;52.432;20.662;2024-03-08T00:14:12;104.07;;;45.97;;
36359;SDS011;22388;52.432;20.662;2024-03-08T00:16:37;116.47;;;48.60;;
36359;SDS011;22388;52.432;20.662;2024-03-08T00:19:03;99.90;;;45.28;;
36359;SDS011;22388;52.432;20.662;2024-03-08T00:21:29;104.15;;;44.95;;
36359;SDS011;22388;52.432;20.662;2024-03-08T00:23:54;99.93;;;44.45;;
36359;SDS011;22388;52.432;20.662;2024-03-08T00:26:20;101.03;;;43.78;;
36359;SDS011;22388;52.432;20.662;2024-03-08T00:28:47;105.30;;;45.05;;
36359;SDS011;22388;52.432;20.662;2024-03-08T00:31:14;94.68;;;43.33;;
36359;SDS011;22388;52.432;20.662;2024-03-08T00:33:39;95.07;;;42.45;;
36359;SDS011;22388;52.432;20.662;2024-03-08T00:36:04;89.65;;;42.90;;
36359;SDS011;22388;52.432;20.662;2024-03-08T00:38:30;95.07;;;43.17;;
36359;SDS011;22388;52.432;20.662;2024-03-08T00:40:56;93.00;;;42.22;;
36359;SDS011;22388;52.432;20.662;2024-03-08T00:43:22;97.07;;;40.97;;
36359;SDS011;22388;52.432;20.662;2024-03-08T00:45:47;92.13;;;41.97;;
36359;SDS011;22388;52.432;20.662;2024-03-08T00:48:13;92.22;;;41.30;;
36359;SDS011;22388;52.432;20.662;2024-03-08T00:50:38;84.13;;;39.88;;
36359;SDS011;22388;52.432;20.662;2024-03-08T00:53:04;94.03;;;41.03;;
36359;SDS011;22388;52.432;20.662;2024-03-08T00:55:29;93.70;;;43.47;;
36359;SDS011;22388;52.432;20.662;2024-03-08T00:57:55;96.18;;;44.78;;
36359;SDS011;22388;52.432;20.662;2024-03-08T01:00:21;89.57;;;41.92;;
36359;SDS011;22388;52.432;20.662;2024-03-08T01:02:46;89.15;;;42.60;;
36359;SDS011;22388;52.432;20.662;2024-03-08T01:05:12;94.38;;;41.45;;
36359;SDS011;22388;52.432;20.662;2024-03-08T01:07:38;99.57;;;45.22;;
36359;SDS011;22388;52.432;20.662;2024-03-08T01:10:04;87.95;;;41.63;;
36359;SDS011;22388;52.432;20.662;2024-03-08T01:14:58;96.10;;;43.97;;
36359;SDS011;22388;52.432;20.662;2024-03-08T01:17:23;95.85;;;44.00;;
36359;SDS011;22388;52.432;20.662;2024-03-08T01:19:49;90.88;;;40.97;;
36359;SDS011;22388;52.432;20.662;2024-03-08T01:22:14;92.28;;;42.65;;
36359;SDS011;22388;52.432;20.662;2024-03-08T01:24:40;102.13;;;45.42;;
36359;SDS011;22388;52.432;20.662;2024-03-08T01:27:05;95.95;;;42.63;;
36359;SDS011;22388;52.432;20.662;2024-03-08T01:29:31;97.68;;;43.88;;
36359;SDS011;22388;52.432;20.662;2024-03-08T01:31:56;87.85;;;43.33;;
36359;SDS011;22388;52.432;20.662;2024-03-08T01:34:22;90.47;;;40.80;;
36359;SDS011;22388;52.432;20.662;2024-03-08T01:36:48;91.18;;;42.88;;
36359;SDS011;22388;52.432;20.662;2024-03-08T01:39:13;93.63;;;43.33;;
36359;SDS011;22388;52.432;20.662;2024-03-08T01:41:39;90.65;;;41.10;;
36359;SDS011;22388;52.432;20.662;2024-03-08T01:44:05;90.43;;;43.30;;
36359;SDS011;22388;52.432;20.662;2024-03-08T01:46:32;99.60;;;42.85;;
36359;SDS011;22388;52.432;20.662;2024-03-08T01:48:58;89.25;;;40.38;;
36359;SDS011;22388;52.432;20.662;2024-03-08T01:51:25;91.07;;;42.38;;
36359;SDS011;22388;52.432;20.662;2024-03-08T01:53:51;93.78;;;41.28;;
36359;SDS011;22388;52.432;20.662;2024-03-08T01:56:17;93.68;;;41.80;;
36359;SDS011;22388;52.432;20.662;2024-03-08T01:58:43;92.45;;;42.50;;
36359;SDS011;22388;52.432;20.662;2024-03-08T02:01:10;84.47;;;39.78;;
36359;SDS011;22388;52.432;20.662;2024-03-08T02:03:36;86.82;;;40.10;;
36359;SDS011;22388;52.432;20.662;2024-03-08T02:06:01;89.35;;;40.45;;
36359;SDS011;22388;52.432;20.662;2024-03-08T02:08:26;83.13;;;39.97;;
36359;SDS011;22388;52.432;20.662;2024-03-08T02:10:52;85.90;;;40.90;;
36359;SDS011;22388;52.432;20.662;2024-03-08T02:13:17;93.20;;;42.83;;
36359;SDS011;22388;52.432;20.662;2024-03-08T02:15:56;89.55;;;39.47;;
36359;SDS011;22388;52.432;20.662;2024-03-08T02:18:24;87.47;;;39.58;;
36359;SDS011;22388;52.432;20.662;2024-03-08T02:20:52;94.07;;;43.58;;
36359;SDS011;22388;52.432;20.662;2024-03-08T02:23:18;86.72;;;40.78;;
36359;SDS011;22388;52.432;20.662;2024-03-08T02:25:44;86.32;;;40.50;;
36359;SDS011;22388;52.432;20.662;2024-03-08T02:28:13;90.20;;;41.22;;
36359;SDS011;22388;52.432;20.662;2024-03-08T02:30:39;88.63;;;41.55;;
36359;SDS011;22388;52.432;20.662;2024-03-08T02:33:04;84.88;;;39.95;;
36359;SDS011;22388;52.432;20.662;2024-03-08T02:35:30;87.88;;;39.75;;
36359;SDS011;22388;52.432;20.662;2024-03-08T02:37:55;78.88;;;37.75;;
36359;SDS011;22388;52.432;20.662;2024-03-08T02:40:21;89.10;;;39.30;;
36359;SDS011;22388;52.432;20.662;2024-03-08T02:42:47;85.65;;;38.75;;
36359;SDS011;22388;52.432;20.662;2024-03-08T02:45:13;80.03;;;38.58;;
36359;SDS011;22388;52.432;20.662;2024-03-08T02:47:38;86.65;;;39.80;;
36359;SDS011;22388;52.432;20.662;2024-03-08T02:50:04;91.38;;;41.00;;
36359;SDS011;22388;52.432;20.662;2024-03-08T02:52:30;75.40;;;38.13;;
36359;SDS011;22388;52.432;20.662;2024-03-08T02:54:56;83.55;;;39.45;;
36359;SDS011;22388;52.432;20.662;2024-03-08T02:57:21;84.40;;;39.85;;
36359;SDS011;22388;52.432;20.662;2024-03-08T02:59:47;82.57;;;39.78;;
36359;SDS011;22388;52.432;20.662;2024-03-08T03:02:12;79.68;;;39.58;;
36359;SDS011;22388;52.432;20.662;2024-03-08T03:04:41;85.82;;;39.00;;
36359;SDS011;22388;52.432;20.662;2024-03-08T03:07:06;80.97;;;39.55;;
36359;SDS011;22388;52.432;20.662;2024-03-08T03:09:31;90.38;;;40.03;;
36359;SDS011;22388;52.432;20.662;2024-03-08T03:12:00;81.88;;;38.25;;
36359;SDS011;22388;52.432;20.662;2024-03-08T03:14:26;83.03;;;38.05;;
36359;SDS011;22388;52.432;20.662;2024-03-08T03:16:52;83.05;;;38.50;;
36359;SDS011;22388;52.432;20.662;2024-03-08T03:19:17;82.13;;;38.22;;
36359;SDS011;22388;52.432;20.662;2024-03-08T03:21:43;83.60;;;38.65;;
36359;SDS011;22388;52.432;20.662;2024-03-08T03:24:09;82.53;;;37.13;;
36359;SDS011;22388;52.432;20.662;2024-03-08T03:26:40;77.90;;;36.80;;
36359;SDS011;22388;52.432;20.662;2024-03-08T03:29:06;77.53;;;36.78;;
36359;SDS011;22388;52.432;20.662;2024-03-08T03:31:33;77.28;;;36.95;;
36359;SDS011;22388;52.432;20.662;2024-03-08T03:33:59;80.07;;;38.38;;
36359;SDS011;22388;52.432;20.662;2024-03-08T03:36:27;79.00;;;37.72;;
36359;SDS011;22388;52.432;20.662;2024-03-08T03:38:53;73.50;;;35.05;;
36359;SDS011;22388;52.432;20.662;2024-03-08T03:41:31;72.82;;;35.28;;
36359;SDS011;22388;52.432;20.662;2024-03-08T03:43:57;73.70;;;36.22;;
36359;SDS011;22388;52.432;20.662;2024-03-08T03:46:22;72.90;;;35.55;;
36359;SDS011;22388;52.432;20.662;2024-03-08T03:48:48;77.75;;;36.33;;
36359;SDS011;22388;52.432;20.662;2024-03-08T03:51:13;79.85;;;36.22;;
36359;SDS011;22388;52.432;20.662;2024-03-08T03:53:40;78.80;;;37.30;;
36359;SDS011;22388;52.432;20.662;2024-03-08T03:56:07;74.22;;;35.28;;
36359;SDS011;22388;52.432;20.662;2024-03-08T03:58:32;71.45;;;35.90;;
36359;SDS011;22388;52.432;20.662;2024-03-08T04:00:58;82.30;;;37.92;;
36359;SDS011;22388;52.432;20.662;2024-03-08T04:03:23;79.00;;;36.97;;
36359;SDS011;22388;52.432;20.662;2024-03-08T04:05:49;75.13;;;35.97;;
36359;SDS011;22388;52.432;20.662;2024-03-08T04:08:14;75.32;;;34.92;;
36359;SDS011;22388;52.432;20.662;2024-03-08T04:10:40;73.03;;;34.97;;
36359;SDS011;22388;52.432;20.662;2024-03-08T04:13:07;77.78;;;36.42;;
36359;SDS011;22388;52.432;20.662;2024-03-08T04:15:32;73.10;;;36.25;;
36359;SDS011;22388;52.432;20.662;2024-03-08T04:17:58;68.55;;;33.00;;
36359;SDS011;22388;52.432;20.662;2024-03-08T04:20:25;77.00;;;35.83;;
36359;SDS011;22388;52.432;20.662;2024-03-08T04:22:51;72.13;;;33.88;;
36359;SDS011;22388;52.432;20.662;2024-03-08T04:25:16;79.20;;;35.80;;
36359;SDS011;22388;52.432;20.662;2024-03-08T04:27:42;84.75;;;34.83;;
36359;SDS011;22388;52.432;20.662;2024-03-08T04:30:07;80.22;;;35.22;;
36359;SDS011;22388;52.432;20.662;2024-03-08T04:32:33;82.20;;;36.72;;
36359;SDS011;22388;52.432;20.662;2024-03-08T04:34:59;73.03;;;34.92;;
36359;SDS011;22388;52.432;20.662;2024-03-08T04:37:26;66.95;;;33.45;;
36359;SDS011;22388;52.432;20.662;2024-03-08T04:39:51;78.05;;;34.83;;
36359;SDS011;22388;52.432;20.662;2024-03-08T04:42:17;79.65;;;36.00;;
36359;SDS011;22388;52.432;20.662;2024-03-08T04:44:43;77.78;;;35.80;;
36359;SDS011;22388;52.432;20.662;2024-03-08T04:47:08;74.38;;;31.92;;
36359;SDS011;22388;52.432;20.662;2024-03-08T04:49:35;71.88;;;33.42;;
36359;SDS011;22388;52.432;20.662;2024-03-08T04:52:01;73.70;;;33.15;;
36359;SDS011;22388;52.432;20.662;2024-03-08T04:54:27;73.18;;;36.42;;
36359;SDS011;22388;52.432;20.662;2024-03-08T04:56:53;71.20;;;33.90;;
36359;SDS011;22388;52.432;20.662;2024-03-08T04:59:19;81.40;;;35.83;;
36359;SDS011;22388;52.432;20.662;2024-03-08T05:01:44;76.53;;;35.00;;
36359;SDS011;22388;52.432;20.662;2024-03-08T05:04:09;80.53;;;34.95;;
36359;SDS011;22388;52.432;20.662;2024-03-08T05:06:35;78.25;;;36.35;;
36359;SDS011;22388;52.432;20.662;2024-03-08T05:09:01;72.60;;;35.45;;
36359;SDS011;22388;52.432;20.662;2024-03-08T05:11:41;77.47;;;35.60;;
36359;SDS011;22388;52.432;20.662;2024-03-08T05:14:08;80.38;;;36.65;;
36359;SDS011;22388;52.432;20.662;2024-03-08T05:16:33;79.30;;;37.00;;
36359;SDS011;22388;52.432;20.662;2024-03-08T05:18:59;80.28;;;36.40;;
36359;SDS011;22388;52.432;20.662;2024-03-08T05:21:24;82.80;;;37.38;;
36359;SDS011;22388;52.432;20.662;2024-03-08T05:23:50;74.57;;;35.47;;
36359;SDS011;22388;52.432;20.662;2024-03-08T05:26:16;86.15;;;38.17;;
36359;SDS011;22388;52.432;20.662;2024-03-08T05:28:41;72.40;;;36.33;;
36359;SDS011;22388;52.432;20.662;2024-03-08T05:31:07;86.97;;;38.38;;
36359;SDS011;22388;52.432;20.662;2024-03-08T05:33:33;82.50;;;37.78;;
36359;SDS011;22388;52.432;20.662;2024-03-08T05:36:00;77.55;;;36.15;;
36359;SDS011;22388;52.432;20.662;2024-03-08T05:38:25;86.25;;;37.63;;
36359;SDS011;22388;52.432;20.662;2024-03-08T05:40:51;85.40;;;38.70;;
36359;SDS011;22388;52.432;20.662;2024-03-08T05:43:16;83.57;;;38.17;;
36359;SDS011;22388;52.432;20.662;2024-03-08T05:45:45;76.53;;;37.45;;
36359;SDS011;22388;52.432;20.662;2024-03-08T05:48:10;87.88;;;38.55;;
36359;SDS011;22388;52.432;20.662;2024-03-08T05:50:37;83.40;;;39.75;;
36359;SDS011;22388;52.432;20.662;2024-03-08T05:53:03;89.63;;;39.35;;
36359;SDS011;22388;52.432;20.662;2024-03-08T05:55:32;81.57;;;37.70;;
36359;SDS011;22388;52.432;20.662;2024-03-08T05:58:02;84.38;;;38.85;;
36359;SDS011;22388;52.432;20.662;2024-03-08T06:00:28;84.55;;;38.97;;
36359;SDS011;22388;52.432;20.662;2024-03-08T06:02:53;85.80;;;38.42;;
36359;SDS011;22388;52.432;20.662;2024-03-08T06:05:19;82.45;;;38.55;;
36359;SDS011;22388;52.432;20.662;2024-03-08T06:07:44;88.72;;;39.13;;
36359;SDS011;22388;52.432;20.662;2024-03-08T06:10:10;87.45;;;39.65;;
36359;SDS011;22388;52.432;20.662;2024-03-08T06:12:36;83.05;;;40.38;;
36359;SDS011;22388;52.432;20.662;2024-03-08T06:15:09;87.60;;;39.53;;
36359;SDS011;22388;52.432;20.662;2024-03-08T06:17:35;85.53;;;39.60;;
36359;SDS011;22388;52.432;20.662;2024-03-08T06:20:01;87.45;;;40.80;;
36359;SDS011;22388;52.432;20.662;2024-03-08T06:22:26;81.13;;;38.70;;
36359;SDS011;22388;52.432;20.662;2024-03-08T06:24:51;81.45;;;41.28;;
36359;SDS011;22388;52.432;20.662;2024-03-08T06:27:19;83.18;;;39.08;;
36359;SDS011;22388;52.432;20.662;2024-03-08T06:29:44;89.00;;;41.15;;
36359;SDS011;22388;52.432;20.662;2024-03-08T06:32:10;90.88;;;39.97;;
36359;SDS011;22388;52.432;20.662;2024-03-08T06:34:35;82.43;;;39.88;;
36359;SDS011;22388;52.432;20.662;2024-03-08T06:37:01;93.10;;;39.42;;
36359;SDS011;22388;52.432;20.662;2024-03-08T06:39:26;84.15;;;40.15;;
36359;SDS011;22388;52.432;20.662;2024-03-08T06:41:52;86.05;;;40.25;;
36359;SDS011;22388;52.432;20.662;2024-03-08T06:44:17;85.28;;;39.88;;
36359;SDS011;22388;52.432;20.662;2024-03-08T06:46:43;82.05;;;38.70;;
36359;SDS011;22388;52.432;20.662;2024-03-08T06:49:08;81.55;;;39.40;;
36359;SDS011;22388;52.432;20.662;2024-03-08T06:51:35;83.72;;;38.13;;
36359;SDS011;22388;52.432;20.662;2024-03-08T06:54:01;87.15;;;42.50;;
36359;SDS011;22388;52.432;20.662;2024-03-08T06:56:26;85.63;;;39.90;;
36359;SDS011;22388;52.432;20.662;2024-03-08T06:58:52;87.18;;;40.45;;
36359;SDS011;22388;52.432;20.662;2024-03-08T07:01:17;89.00;;;40.70;;
36359;SDS011;22388;52.432;20.662;2024-03-08T07:03:43;92.32;;;42.60;;
36359;SDS011;22388;52.432;20.662;2024-03-08T07:06:12;98.30;;;42.95;;
36359;SDS011;22388;52.432;20.662;2024-03-08T07:08:37;101.00;;;43.58;;
36359;SDS011;22388;52.432;20.662;2024-03-08T07:11:02;90.63;;;42.33;;
36359;SDS011;22388;52.432;20.662;2024-03-08T07:13:28;100.53;;;46.30;;
36359;SDS011;22388;52.432;20.662;2024-03-08T07:15:54;92.13;;;45.72;;
36359;SDS011;22388;52.432;20.662;2024-03-08T07:18:20;87.68;;;44.20;;
36359;SDS011;22388;52.432;20.662;2024-03-08T07:20:47;85.85;;;43.15;;
36359;SDS011;22388;52.432;20.662;2024-03-08T07:23:13;88.65;;;43.38;;
36359;SDS011;22388;52.432;20.662;2024-03-08T07:25:59;88.47;;;42.97;;
36359;SDS011;22388;52.432;20.662;2024-03-08T07:28:26;90.15;;;45.13;;
36359;SDS011;22388;52.432;20.662;2024-03-08T07:30:52;92.05;;;42.83;;
36359;SDS011;22388;52.432;20.662;2024-03-08T07:33:26;88.20;;;43.97;;
36359;SDS011;22388;52.432;20.662;2024-03-08T07:35:52;87.40;;;43.08;;
36359;SDS011;22388;52.432;20.662;2024-03-08T07:38:17;84.80;;;41.35;;
36359;SDS011;22388;52.432;20.662;2024-03-08T07:40:46;81.82;;;38.63;;
36359;SDS011;22388;52.432;20.662;2024-03-08T07:43:13;79.03;;;38.83;;
36359;SDS011;22388;52.432;20.662;2024-03-08T07:45:38;64.22;;;32.90;;
36359;SDS011;22388;52.432;20.662;2024-03-08T07:48:04;67.45;;;35.83;;
36359;SDS011;22388;52.432;20.662;2024-03-08T07:50:35;66.97;;;33.65;;
36359;SDS011;22388;52.432;20.662;2024-03-08T07:53:02;60.58;;;32.25;;
36359;SDS011;22388;52.432;20.662;2024-03-08T07:55:29;63.97;;;31.48;;
36359;SDS011;22388;52.432;20.662;2024-03-08T07:57:56;69.15;;;32.53;;
36359;SDS011;22388;52.432;20.662;2024-03-08T08:00:21;64.38;;;31.85;;
36359;SDS011;22388;52.432;20.662;2024-03-08T08:02:47;61.75;;;30.05;;
36359;SDS011;22388;52.432;20.662;2024-03-08T08:05:14;54.05;;;29.27;;
36359;SDS011;22388;52.432;20.662;2024-03-08T08:07:40;59.03;;;31.08;;
36359;SDS011;22388;52.432;20.662;2024-03-08T08:10:08;63.85;;;31.67;;
36359;SDS011;22388;52.432;20.662;2024-03-08T08:12:40;61.97;;;33.08;;
36359;SDS011;22388;52.432;20.662;2024-03-08T08:15:07;60.38;;;31.48;;
36359;SDS011;22388;52.432;20.662;2024-03-08T08:17:32;64.45;;;30.75;;
36359;SDS011;22388;52.432;20.662;2024-03-08T08:19:59;55.05;;;28.73;;
36359;SDS011;22388;52.432;20.662;2024-03-08T08:22:25;64.03;;;32.78;;
36359;SDS011;22388;52.432;20.662;2024-03-08T08:24:50;58.50;;;29.98;;
36359;SDS011;22388;52.432;20.662;2024-03-08T08:27:17;58.85;;;31.23;;
36359;SDS011;22388;52.432;20.662;2024-03-08T08:29:42;54.60;;;29.73;;
36359;SDS011;22388;52.432;20.662;2024-03-08T08:32:08;56.95;;;29.52;;
36359;SDS011;22388;52.432;20.662;2024-03-08T08:34:34;60.65;;;28.95;;
36359;SDS011;22388;52.432;20.662;2024-03-08T08:36:59;54.00;;;27.85;;
36359;SDS011;22388;52.432;20.662;2024-03-08T08:39:25;52.40;;;27.25;;
36359;SDS011;22388;52.432;20.662;2024-03-08T08:41:51;50.33;;;25.83;;
36359;SDS011;22388;52.432;20.662;2024-03-08T08:44:16;50.97;;;24.80;;
36359;SDS011;22388;52.432;20.662;2024-03-08T08:46:42;45.30;;;24.85;;
36359;SDS011;22388;52.432;20.662;2024-03-08T08:49:07;45.85;;;23.38;;
36359;SDS011;22388;52.432;20.662;2024-03-08T08:51:36;44.47;;;23.45;;
36359;SDS011;22388;52.432;20.662;2024-03-08T08:54:01;49.80;;;24.30;;
36359;SDS011;22388;52.432;20.662;2024-03-08T08:56:27;58.03;;;25.73;;
36359;SDS011;22388;52.432;20.662;2024-03-08T08:58:53;57.63;;;21.98;;
36359;SDS011;22388;52.432;20.662;2024-03-08T09:01:19;47.50;;;23.48;;
36359;SDS011;22388;52.432;20.662;2024-03-08T09:03:45;45.67;;;20.73;;
36359;SDS011;22388;52.432;20.662;2024-03-08T09:06:11;42.33;;;20.45;;
36359;SDS011;22388;52.432;20.662;2024-03-08T09:08:37;49.97;;;20.17;;
36359;SDS011;22388;52.432;20.662;2024-03-08T09:11:03;39.95;;;20.80;;
36359;SDS011;22388;52.432;20.662;2024-03-08T09:13:29;38.92;;;17.92;;
36359;SDS011;22388;52.432;20.662;2024-03-08T09:15:54;34.35;;;16.27;;
36359;SDS011;22388;52.432;20.662;2024-03-08T09:18:32;27.05;;;14.43;;
36359;SDS011;22388;52.432;20.662;2024-03-08T09:20:58;29.27;;;16.02;;
36359;SDS011;22388;52.432;20.662;2024-03-08T09:23:24;37.65;;;17.38;;
36359;SDS011;22388;52.432;20.662;2024-03-08T09:25:50;35.50;;;16.95;;
36359;SDS011;22388;52.432;20.662;2024-03-08T09:28:16;36.33;;;17.83;;
36359;SDS011;22388;52.432;20.662;2024-03-08T09:30:42;38.17;;;19.60;;
36359;SDS011;22388;52.432;20.662;2024-03-08T09:33:08;46.95;;;22.73;;
36359;SDS011;22388;52.432;20.662;2024-03-08T09:35:34;45.97;;;22.92;;
36359;SDS011;22388;52.432;20.662;2024-03-08T09:38:00;50.55;;;23.15;;
36359;SDS011;22388;52.432;20.662;2024-03-08T09:40:26;45.13;;;22.85;;
36359;SDS011;22388;52.432;20.662;2024-03-08T09:42:52;39.28;;;21.23;;
36359;SDS011;22388;52.432;20.662;2024-03-08T09:45:18;42.75;;;21.08;;
36359;SDS011;22388;52.432;20.662;2024-03-08T09:47:45;37.33;;;19.13;;
36359;SDS011;22388;52.432;20.662;2024-03-08T09:50:11;36.45;;;18.85;;
36359;SDS011;22388;52.432;20.662;2024-03-08T09:52:41;32.42;;;16.95;;
36359;SDS011;22388;52.432;20.662;2024-03-08T09:55:09;27.70;;;15.43;;
36359;SDS011;22388;52.432;20.662;2024-03-08T09:57:36;33.97;;;16.48;;
36359;SDS011;22388;52.432;20.662;2024-03-08T10:00:03;30.80;;;15.10;;
36359;SDS011;22388;52.432;20.662;2024-03-08T10:02:33;27.70;;;14.20;;
36359;SDS011;22388;52.432;20.662;2024-03-08T10:05:00;25.25;;;13.23;;
36359;SDS011;22388;52.432;20.662;2024-03-08T10:07:28;25.02;;;13.70;;
36359;SDS011;22388;52.432;20.662;2024-03-08T10:09:54;25.77;;;14.55;;
36359;SDS011;22388;52.432;20.662;2024-03-08T10:12:19;25.35;;;14.25;;
36359;SDS011;22388;52.432;20.662;2024-03-08T10:14:46;27.02;;;14.35;;
36359;SDS011;22388;52.432;20.662;2024-03-08T10:17:11;27.70;;;14.48;;
36359;SDS011;22388;52.432;20.662;2024-03-08T10:19:37;26.90;;;14.68;;
36359;SDS011;22388;52.432;20.662;2024-03-08T10:22:02;23.73;;;12.45;;
36359;SDS011;22388;52.432;20.662;2024-03-08T10:24:29;30.02;;;14.02;;
36359;SDS011;22388;52.432;20.662;2024-03-08T10:27:03;23.60;;;12.68;;
36359;SDS011;22388;52.432;20.662;2024-03-08T10:29:32;25.17;;;12.60;;
36359;SDS011;22388;52.432;20.662;2024-03-08T10:31:57;30.02;;;12.93;;
36359;SDS011;22388;52.432;20.662;2024-03-08T10:34:23;26.38;;;13.65;;
36359;SDS011;22388;52.432;20.662;2024-03-08T10:36:50;25.60;;;13.15;;
36359;SDS011;22388;52.432;20.662;2024-03-08T10:39:24;27.42;;;13.82;;
36359;SDS011;22388;52.432;20.662;2024-03-08T10:41:59;26.23;;;14.63;;
36359;SDS011;22388;52.432;20.662;2024-03-08T10:49:23;29.48;;;13.68;;
36359;SDS011;22388;52.432;20.662;2024-03-08T10:51:50;23.17;;;12.52;;
36359;SDS011;22388;52.432;20.662;2024-03-08T10:54:17;23.60;;;12.50;;
36359;SDS011;22388;52.432;20.662;2024-03-08T10:56:44;26.70;;;12.57;;
36359;SDS011;22388;52.432;20.662;2024-03-08T10:59:10;24.08;;;13.15;;
36359;SDS011;22388;52.432;20.662;2024-03-08T11:01:36;28.17;;;13.98;;
36359;SDS011;22388;52.432;20.662;2024-03-08T11:04:03;26.17;;;13.13;;
36359;SDS011;22388;52.432;20.662;2024-03-08T11:06:30;25.15;;;14.30;;
36359;SDS011;22388;52.432;20.662;2024-03-08T11:08:57;26.38;;;13.68;;
36359;SDS011;22388;52.432;20.662;2024-03-08T11:11:32;25.15;;;12.90;;
36359;SDS011;22388;52.432;20.662;2024-03-08T11:13:59;25.35;;;12.50;;
36359;SDS011;22388;52.432;20.662;2024-03-08T11:18:55;23.65;;;12.90;;
36359;SDS011;22388;52.432;20.662;2024-03-08T11:21:25;22.42;;;12.10;;
36359;SDS011;22388;52.432;20.662;2024-03-08T11:24:01;25.98;;;12.50;;
36359;SDS011;22388;52.432;20.662;2024-03-08T11:26:27;22.23;;;12.07;;
36359;SDS011;22388;52.432;20.662;2024-03-08T11:29:12;24.60;;;12.35;;
36359;SDS011;22388;52.432;20.662;2024-03-08T11:31:41;22.20;;;12.18;;
36359;SDS011;22388;52.432;20.662;2024-03-08T11:34:14;24.15;;;12.48;;
36359;SDS011;22388;52.432;20.662;2024-03-08T11:36:41;24.83;;;12.38;;
36359;SDS011;22388;52.432;20.662;2024-03-08T11:39:07;27.45;;;13.18;;
36359;SDS011;22388;52.432;20.662;2024-03-08T11:41:39;25.73;;;13.13;;
36359;SDS011;22388;52.432;20.662;2024-03-08T11:44:08;22.60;;;12.25;;
36359;SDS011;22388;52.432;20.662;2024-03-08T11:46:41;23.83;;;11.82;;
36359;SDS011;22388;52.432;20.662;2024-03-08T11:49:11;25.05;;;11.57;;
36359;SDS011;22388;52.432;20.662;2024-03-08T11:51:37;21.90;;;12.02;;
36359;SDS011;22388;52.432;20.662;2024-03-08T11:54:02;22.42;;;12.15;;
36359;SDS011;22388;52.432;20.662;2024-03-08T11:56:28;23.30;;;11.50;;
36359;SDS011;22388;52.432;20.662;2024-03-08T11:58:56;23.50;;;12.88;;
36359;SDS011;22388;52.432;20.662;2024-03-08T12:01:26;23.30;;;12.45;;
36359;SDS011;22388;52.432;20.662;2024-03-08T12:03:55;22.25;;;12.00;;
36359;SDS011;22388;52.432;20.662;2024-03-08T12:06:24;24.92;;;11.77;;
36359;SDS011;22388;52.432;20.662;2024-03-08T12:08:49;23.65;;;12.48;;
36359;SDS011;22388;52.432;20.662;2024-03-08T12:11:19;21.27;;;12.43;;
36359;SDS011;22388;52.432;20.662;2024-03-08T12:16:15;24.33;;;11.52;;
36359;SDS011;22388;52.432;20.662;2024-03-08T12:18:42;20.58;;;11.77;;
36359;SDS011;22388;52.432;20.662;2024-03-08T12:21:09;27.63;;;12.15;;
36359;SDS011;22388;52.432;20.662;2024-03-08T12:23:36;25.83;;;12.27;;
36359;SDS011;22388;52.432;20.662;2024-03-08T12:26:14;20.48;;;11.38;;
36359;SDS011;22388;52.432;20.662;2024-03-08T12:28:44;23.23;;;11.10;;
36359;SDS011;22388;52.432;20.662;2024-03-08T12:31:13;22.85;;;11.63;;
36359;SDS011;22388;52.432;20.662;2024-03-08T12:36:15;24.15;;;10.98;;
36359;SDS011;22388;52.432;20.662;2024-03-08T12:38:43;19.35;;;10.80;;
36359;SDS011;22388;52.432;20.662;2024-03-08T12:41:08;22.02;;;12.07;;
36359;SDS011;22388;52.432;20.662;2024-03-08T12:43:34;22.77;;;12.10;;
36359;SDS011;22388;52.432;20.662;2024-03-08T12:45:59;23.75;;;11.57;;
36359;SDS011;22388;52.432;20.662;2024-03-08T12:48:24;25.75;;;12.38;;
36359;SDS011;22388;52.432;20.662;2024-03-08T12:50:50;20.15;;;11.23;;
36359;SDS011;22388;52.432;20.662;2024-03-08T12:53:17;21.13;;;11.45;;
36359;SDS011;22388;52.432;20.662;2024-03-08T12:55:42;20.75;;;11.35;;
36359;SDS011;22388;52.432;20.662;2024-03-08T12:58:08;23.23;;;12.15;;
36359;SDS011;22388;52.432;20.662;2024-03-08T13:00:34;21.42;;;11.38;;
36359;SDS011;22388;52.432;20.662;2024-03-08T13:03:02;22.48;;;12.25;;
36359;SDS011;22388;52.432;20.662;2024-03-08T13:05:27;23.98;;;13.05;;
36359;SDS011;22388;52.432;20.662;2024-03-08T13:07:53;24.30;;;11.73;;
36359;SDS011;22388;52.432;20.662;2024-03-08T13:10:20;25.27;;;11.75;;
36359;SDS011;22388;52.432;20.662;2024-03-08T13:12:45;24.92;;;11.32;;
36359;SDS011;22388;52.432;20.662;2024-03-08T13:15:11;29.73;;;12.13;;
36359;SDS011;22388;52.432;20.662;2024-03-08T13:17:41;20.52;;;11.57;;
36359;SDS011;22388;52.432;20.662;2024-03-08T13:20:08;23.45;;;12.07;;
36359;SDS011;22388;52.432;20.662;2024-03-08T13:22:34;23.65;;;11.32;;
36359;SDS011;22388;52.432;20.662;2024-03-08T13:24:59;22.90;;;12.95;;
36359;SDS011;22388;52.432;20.662;2024-03-08T13:27:29;23.23;;;11.48;;
36359;SDS011;22388;52.432;20.662;2024-03-08T13:29:54;20.65;;;11.98;;
36359;SDS011;22388;52.432;20.662;2024-03-08T13:32:20;21.90;;;11.60;;
36359;SDS011;22388;52.432;20.662;2024-03-08T13:34:49;22.23;;;11.32;;
36359;SDS011;22388;52.432;20.662;2024-03-08T13:37:16;20.20;;;11.88;;
36359;SDS011;22388;52.432;20.662;2024-03-08T13:39:41;22.73;;;12.02;;
36359;SDS011;22388;52.432;20.662;2024-03-08T13:42:15;22.95;;;11.60;;
36359;SDS011;22388;52.432;20.662;2024-03-08T13:44:47;24.75;;;11.80;;
36359;SDS011;22388;52.432;20.662;2024-03-08T13:47:13;20.83;;;11.70;;
36359;SDS011;22388;52.432;20.662;2024-03-08T13:49:38;23.65;;;11.50;;
36359;SDS011;22388;52.432;20.662;2024-03-08T13:52:04;23.88;;;11.57;;
36359;SDS011;22388;52.432;20.662;2024-03-08T13:54:30;22.73;;;12.02;;
36359;SDS011;22388;52.432;20.662;2024-03-08T13:56:57;24.13;;;11.57;;
36359;SDS011;22388;52.432;20.662;2024-03-08T13:59:22;26.40;;;10.98;;
36359;SDS011;22388;52.432;20.662;2024-03-08T14:01:49;19.90;;;11.15;;
36359;SDS011;22388;52.432;20.662;2024-03-08T14:04:14;22.88;;;11.10;;
36359;SDS011;22388;52.432;20.662;2024-03-08T14:06:44;20.27;;;11.15;;
36359;SDS011;22388;52.432;20.662;2024-03-08T14:09:13;19.73;;;11.32;;
36359;SDS011;22388;52.432;20.662;2024-03-08T14:11:45;25.02;;;10.68;;
36359;SDS011;22388;52.432;20.662;2024-03-08T14:14:11;24.08;;;10.68;;
36359;SDS011;22388;52.432;20.662;2024-03-08T14:16:39;21.00;;;11.18;;
36359;SDS011;22388;52.432;20.662;2024-03-08T14:19:04;21.23;;;11.10;;
36359;SDS011;22388;52.432;20.662;2024-03-08T14:21:33;23.70;;;11.32;;